sensor_id;sensor_type;location;lat;lon;timestamp;P1;durP1;ratioP1;P2;durP2;ratioP2
12290;SDS011;6208;48.956;9.076;2023-07-28T00:02:15;4.85;;;4.45;;
12290;SDS011;6208;48.956;9.076;2023-07-28T00:04:59;5.30;;;4.53;;
12290;SDS011;6208;48.956;9.076;2023-07-28T00:07:44;5.10;;;4.75;;
12290;SDS011;6208;48.956;9.076;2023-07-28T00:10:28;5.05;;;4.60;;
12290;SDS011;6208;48.956;9.076;2023-07-28T00:13:12;5.07;;;4.63;;
12290;SDS011;6208;48.956;9.076;2023-07-28T00:15:56;5.30;;;4.65;;
12290;SDS011;6208;48.956;9.076;2023-07-28T00:18:40;4.75;;;4.45;;
12290;SDS011;6208;48.956;9.076;2023-07-28T00:21:25;5.47;;;5.05;;
12290;SDS011;6208;48.956;9.076;2023-07-28T00:24:10;5.10;;;4.80;;
12290;SDS011;6208;48.956;9.076;2023-07-28T00:26:54;4.80;;;4.40;;
12290;SDS011;6208;48.956;9.076;2023-07-28T00:29:38;4.97;;;4.55;;
12290;SDS011;6208;48.956;9.076;2023-07-28T00:32:22;5.63;;;4.75;;
12290;SDS011;6208;48.956;9.076;2023-07-28T00:35:07;5.13;;;4.60;;
12290;SDS011;6208;48.956;9.076;2023-07-28T00:37:51;5.10;;;4.63;;
12290;SDS011;6208;48.956;9.076;2023-07-28T00:40:36;4.63;;;4.18;;
12290;SDS011;6208;48.956;9.076;2023-07-28T00:43:21;4.55;;;4.18;;
12290;SDS011;6208;48.956;9.076;2023-07-28T00:46:05;4.57;;;4.18;;
12290;SDS011;6208;48.956;9.076;2023-07-28T00:48:50;6.45;;;5.30;;
12290;SDS011;6208;48.956;9.076;2023-07-28T00:51:36;5.75;;;4.72;;
12290;SDS011;6208;48.956;9.076;2023-07-28T00:54:21;4.55;;;4.25;;
12290;SDS011;6208;48.956;9.076;2023-07-28T00:57:05;5.25;;;4.10;;
12290;SDS011;6208;48.956;9.076;2023-07-28T00:59:49;4.05;;;3.85;;
12290;SDS011;6208;48.956;9.076;2023-07-28T01:02:34;4.57;;;4.25;;
12290;SDS011;6208;48.956;9.076;2023-07-28T01:05:18;4.20;;;3.90;;
12290;SDS011;6208;48.956;9.076;2023-07-28T01:11:12;4.15;;;3.85;;
12290;SDS011;6208;48.956;9.076;2023-07-28T01:13:57;5.30;;;4.25;;
12290;SDS011;6208;48.956;9.076;2023-07-28T01:16:41;4.97;;;4.57;;
12290;SDS011;6208;48.956;9.076;2023-07-28T01:19:25;4.68;;;4.28;;
12290;SDS011;6208;48.956;9.076;2023-07-28T01:25:39;4.30;;;4.00;;
12290;SDS011;6208;48.956;9.076;2023-07-28T01:28:32;4.40;;;4.00;;
12290;SDS011;6208;48.956;9.076;2023-07-28T01:31:18;4.45;;;4.15;;
12290;SDS011;6208;48.956;9.076;2023-07-28T01:34:02;3.63;;;3.42;;
12290;SDS011;6208;48.956;9.076;2023-07-28T01:36:46;4.00;;;3.70;;
12290;SDS011;6208;48.956;9.076;2023-07-28T01:39:30;3.92;;;3.63;;
12290;SDS011;6208;48.956;9.076;2023-07-28T01:42:14;4.80;;;4.18;;
12290;SDS011;6208;48.956;9.076;2023-07-28T01:44:58;3.85;;;3.45;;
12290;SDS011;6208;48.956;9.076;2023-07-28T01:47:43;4.18;;;3.90;;
12290;SDS011;6208;48.956;9.076;2023-07-28T01:50:27;4.30;;;3.95;;
12290;SDS011;6208;48.956;9.076;2023-07-28T01:53:11;4.60;;;4.30;;
12290;SDS011;6208;48.956;9.076;2023-07-28T01:55:54;3.88;;;3.67;;
12290;SDS011;6208;48.956;9.076;2023-07-28T01:58:39;4.15;;;3.92;;
12290;SDS011;6208;48.956;9.076;2023-07-28T02:01:23;4.15;;;3.85;;
12290;SDS011;6208;48.956;9.076;2023-07-28T02:04:07;4.00;;;3.70;;
12290;SDS011;6208;48.956;9.076;2023-07-28T02:06:51;4.10;;;3.72;;
12290;SDS011;6208;48.956;9.076;2023-07-28T02:09:35;5.88;;;4.25;;
12290;SDS011;6208;48.956;9.076;2023-07-28T02:12:19;5.07;;;3.67;;
12290;SDS011;6208;48.956;9.076;2023-07-28T02:15:03;4.35;;;3.70;;
12290;SDS011;6208;48.956;9.076;2023-07-28T02:17:48;3.45;;;3.25;;
12290;SDS011;6208;48.956;9.076;2023-07-28T02:20:32;4.53;;;3.40;;
12290;SDS011;6208;48.956;9.076;2023-07-28T02:23:18;3.58;;;3.28;;
12290;SDS011;6208;48.956;9.076;2023-07-28T02:26:02;4.00;;;3.58;;
12290;SDS011;6208;48.956;9.076;2023-07-28T02:28:46;3.58;;;3.38;;
12290;SDS011;6208;48.956;9.076;2023-07-28T02:31:30;3.80;;;3.50;;
12290;SDS011;6208;48.956;9.076;2023-07-28T02:34:14;3.50;;;3.20;;
12290;SDS011;6208;48.956;9.076;2023-07-28T02:36:58;3.95;;;3.65;;
12290;SDS011;6208;48.956;9.076;2023-07-28T02:39:42;3.53;;;3.30;;
12290;SDS011;6208;48.956;9.076;2023-07-28T02:42:26;3.17;;;2.97;;
12290;SDS011;6208;48.956;9.076;2023-07-28T02:45:11;3.67;;;3.45;;
12290;SDS011;6208;48.956;9.076;2023-07-28T02:47:54;3.75;;;3.40;;
12290;SDS011;6208;48.956;9.076;2023-07-28T02:50:39;3.45;;;3.17;;
12290;SDS011;6208;48.956;9.076;2023-07-28T02:53:28;3.35;;;3.15;;
12290;SDS011;6208;48.956;9.076;2023-07-28T02:56:12;3.80;;;3.45;;
12290;SDS011;6208;48.956;9.076;2023-07-28T02:58:56;5.25;;;3.30;;
12290;SDS011;6208;48.956;9.076;2023-07-28T03:01:41;3.92;;;3.60;;
12290;SDS011;6208;48.956;9.076;2023-07-28T03:04:25;3.60;;;3.40;;
12290;SDS011;6208;48.956;9.076;2023-07-28T03:07:09;5.82;;;3.88;;
12290;SDS011;6208;48.956;9.076;2023-07-28T03:09:53;4.40;;;3.40;;
12290;SDS011;6208;48.956;9.076;2023-07-28T03:12:37;4.15;;;3.75;;
12290;SDS011;6208;48.956;9.076;2023-07-28T03:15:22;4.72;;;4.32;;
12290;SDS011;6208;48.956;9.076;2023-07-28T03:18:06;4.13;;;3.70;;
12290;SDS011;6208;48.956;9.076;2023-07-28T03:20:50;3.47;;;3.28;;
12290;SDS011;6208;48.956;9.076;2023-07-28T03:23:35;3.38;;;3.17;;
12290;SDS011;6208;48.956;9.076;2023-07-28T03:26:19;3.50;;;3.20;;
12290;SDS011;6208;48.956;9.076;2023-07-28T03:29:03;4.28;;;3.42;;
12290;SDS011;6208;48.956;9.076;2023-07-28T03:31:51;3.40;;;3.20;;
12290;SDS011;6208;48.956;9.076;2023-07-28T03:34:35;4.72;;;4.22;;
12290;SDS011;6208;48.956;9.076;2023-07-28T03:37:19;4.22;;;3.70;;
12290;SDS011;6208;48.956;9.076;2023-07-28T03:40:03;4.90;;;4.38;;
12290;SDS011;6208;48.956;9.076;2023-07-28T03:42:47;3.90;;;3.63;;
12290;SDS011;6208;48.956;9.076;2023-07-28T03:45:31;4.05;;;3.75;;
12290;SDS011;6208;48.956;9.076;2023-07-28T03:48:16;3.95;;;3.65;;
12290;SDS011;6208;48.956;9.076;2023-07-28T03:51:00;9.68;;;8.82;;
12290;SDS011;6208;48.956;9.076;2023-07-28T03:53:44;8.85;;;8.05;;
12290;SDS011;6208;48.956;9.076;2023-07-28T03:56:28;4.72;;;4.32;;
12290;SDS011;6208;48.956;9.076;2023-07-28T03:59:12;3.80;;;3.60;;
12290;SDS011;6208;48.956;9.076;2023-07-28T04:01:56;3.80;;;3.20;;
12290;SDS011;6208;48.956;9.076;2023-07-28T04:04:41;4.43;;;3.22;;
12290;SDS011;6208;48.956;9.076;2023-07-28T04:07:25;3.40;;;3.20;;
12290;SDS011;6208;48.956;9.076;2023-07-28T04:10:09;3.22;;;3.03;;
12290;SDS011;6208;48.956;9.076;2023-07-28T04:12:53;5.95;;;3.50;;
12290;SDS011;6208;48.956;9.076;2023-07-28T04:15:37;4.00;;;3.80;;
12290;SDS011;6208;48.956;9.076;2023-07-28T04:18:21;3.95;;;3.30;;
12290;SDS011;6208;48.956;9.076;2023-07-28T04:21:07;4.57;;;3.67;;
12290;SDS011;6208;48.956;9.076;2023-07-28T04:23:52;3.80;;;3.60;;
12290;SDS011;6208;48.956;9.076;2023-07-28T04:26:36;3.50;;;3.20;;
12290;SDS011;6208;48.956;9.076;2023-07-28T04:29:20;3.33;;;3.13;;
12290;SDS011;6208;48.956;9.076;2023-07-28T04:32:05;3.50;;;3.20;;
12290;SDS011;6208;48.956;9.076;2023-07-28T04:34:49;3.42;;;3.22;;
12290;SDS011;6208;48.956;9.076;2023-07-28T04:37:34;3.55;;;3.25;;
12290;SDS011;6208;48.956;9.076;2023-07-28T04:40:18;3.72;;;3.35;;
12290;SDS011;6208;48.956;9.076;2023-07-28T04:43:03;3.17;;;2.97;;
12290;SDS011;6208;48.956;9.076;2023-07-28T04:45:47;3.72;;;3.42;;
12290;SDS011;6208;48.956;9.076;2023-07-28T04:48:31;3.58;;;3.28;;
12290;SDS011;6208;48.956;9.076;2023-07-28T04:51:15;3.90;;;3.60;;
12290;SDS011;6208;48.956;9.076;2023-07-28T04:53:59;3.80;;;3.42;;
12290;SDS011;6208;48.956;9.076;2023-07-28T04:56:43;4.90;;;3.53;;
12290;SDS011;6208;48.956;9.076;2023-07-28T04:59:28;5.20;;;3.67;;
12290;SDS011;6208;48.956;9.076;2023-07-28T05:02:13;3.80;;;3.53;;
12290;SDS011;6208;48.956;9.076;2023-07-28T05:04:57;3.90;;;3.70;;
12290;SDS011;6208;48.956;9.076;2023-07-28T05:07:41;5.43;;;4.88;;
12290;SDS011;6208;48.956;9.076;2023-07-28T05:10:25;3.95;;;3.65;;
12290;SDS011;6208;48.956;9.076;2023-07-28T05:13:09;3.00;;;2.90;;
12290;SDS011;6208;48.956;9.076;2023-07-28T05:15:53;3.38;;;3.13;;
12290;SDS011;6208;48.956;9.076;2023-07-28T05:18:37;3.97;;;3.78;;
12290;SDS011;6208;48.956;9.076;2023-07-28T05:21:21;4.25;;;3.85;;
12290;SDS011;6208;48.956;9.076;2023-07-28T05:24:05;3.60;;;3.33;;
12290;SDS011;6208;48.956;9.076;2023-07-28T05:26:49;4.20;;;3.90;;
12290;SDS011;6208;48.956;9.076;2023-07-28T05:29:33;4.15;;;3.85;;
12290;SDS011;6208;48.956;9.076;2023-07-28T05:32:17;3.58;;;3.38;;
12290;SDS011;6208;48.956;9.076;2023-07-28T05:35:02;3.60;;;3.40;;
12290;SDS011;6208;48.956;9.076;2023-07-28T05:37:46;3.92;;;3.63;;
12290;SDS011;6208;48.956;9.076;2023-07-28T05:40:30;3.63;;;3.35;;
12290;SDS011;6208;48.956;9.076;2023-07-28T05:43:15;3.78;;;3.55;;
12290;SDS011;6208;48.956;9.076;2023-07-28T05:45:59;3.35;;;3.15;;
12290;SDS011;6208;48.956;9.076;2023-07-28T05:48:44;4.18;;;3.83;;
12290;SDS011;6208;48.956;9.076;2023-07-28T05:51:28;3.67;;;3.47;;
12290;SDS011;6208;48.956;9.076;2023-07-28T05:54:12;4.00;;;3.60;;
12290;SDS011;6208;48.956;9.076;2023-07-28T05:56:59;3.85;;;3.65;;
12290;SDS011;6208;48.956;9.076;2023-07-28T05:59:43;4.00;;;3.40;;
12290;SDS011;6208;48.956;9.076;2023-07-28T06:02:27;4.43;;;4.13;;
12290;SDS011;6208;48.956;9.076;2023-07-28T06:05:12;3.58;;;3.20;;
12290;SDS011;6208;48.956;9.076;2023-07-28T06:07:56;4.50;;;4.07;;
12290;SDS011;6208;48.956;9.076;2023-07-28T06:10:40;3.65;;;3.30;;
12290;SDS011;6208;48.956;9.076;2023-07-28T06:13:24;3.22;;;2.97;;
12290;SDS011;6208;48.956;9.076;2023-07-28T06:16:08;3.63;;;3.33;;
12290;SDS011;6208;48.956;9.076;2023-07-28T06:18:52;5.32;;;4.93;;
12290;SDS011;6208;48.956;9.076;2023-07-28T06:21:36;3.90;;;3.60;;
12290;SDS011;6208;48.956;9.076;2023-07-28T06:24:20;5.72;;;3.20;;
12290;SDS011;6208;48.956;9.076;2023-07-28T06:27:08;3.70;;;3.50;;
12290;SDS011;6208;48.956;9.076;2023-07-28T06:29:54;4.00;;;3.70;;
12290;SDS011;6208;48.956;9.076;2023-07-28T06:32:38;3.60;;;3.30;;
12290;SDS011;6208;48.956;9.076;2023-07-28T06:35:22;3.60;;;3.33;;
12290;SDS011;6208;48.956;9.076;2023-07-28T06:38:06;3.25;;;3.05;;
12290;SDS011;6208;48.956;9.076;2023-07-28T06:40:51;3.40;;;3.10;;
12290;SDS011;6208;48.956;9.076;2023-07-28T06:43:35;2.97;;;2.83;;
12290;SDS011;6208;48.956;9.076;2023-07-28T06:46:19;2.90;;;2.70;;
12290;SDS011;6208;48.956;9.076;2023-07-28T06:49:06;2.53;;;2.42;;
12290;SDS011;6208;48.956;9.076;2023-07-28T06:51:50;2.33;;;2.22;;
12290;SDS011;6208;48.956;9.076;2023-07-28T06:54:34;2.50;;;2.08;;
12290;SDS011;6208;48.956;9.076;2023-07-28T06:57:18;2.55;;;2.45;;
12290;SDS011;6208;48.956;9.076;2023-07-28T07:00:03;2.28;;;2.17;;
12290;SDS011;6208;48.956;9.076;2023-07-28T07:02:47;2.58;;;1.83;;
12290;SDS011;6208;48.956;9.076;2023-07-28T07:05:31;2.08;;;1.98;;
12290;SDS011;6208;48.956;9.076;2023-07-28T07:08:16;6.22;;;1.83;;
12290;SDS011;6208;48.956;9.076;2023-07-28T07:11:00;2.00;;;1.70;;
12290;SDS011;6208;48.956;9.076;2023-07-28T07:13:44;2.10;;;2.00;;
12290;SDS011;6208;48.956;9.076;2023-07-28T07:16:28;1.95;;;1.83;;
12290;SDS011;6208;48.956;9.076;2023-07-28T07:19:12;2.92;;;2.15;;
12290;SDS011;6208;48.956;9.076;2023-07-28T07:21:57;2.60;;;2.05;;
12290;SDS011;6208;48.956;9.076;2023-07-28T07:24:41;4.63;;;3.28;;
12290;SDS011;6208;48.956;9.076;2023-07-28T07:27:24;2.08;;;1.98;;
12290;SDS011;6208;48.956;9.076;2023-07-28T07:30:09;2.03;;;1.90;;
12290;SDS011;6208;48.956;9.076;2023-07-28T07:32:53;1.88;;;1.77;;
12290;SDS011;6208;48.956;9.076;2023-07-28T07:35:37;2.63;;;1.98;;
12290;SDS011;6208;48.956;9.076;2023-07-28T07:38:21;2.15;;;1.95;;
12290;SDS011;6208;48.956;9.076;2023-07-28T07:41:06;1.63;;;1.52;;
12290;SDS011;6208;48.956;9.076;2023-07-28T07:43:53;1.73;;;1.63;;
12290;SDS011;6208;48.956;9.076;2023-07-28T07:46:38;1.80;;;1.70;;
12290;SDS011;6208;48.956;9.076;2023-07-28T07:49:22;2.00;;;1.90;;
12290;SDS011;6208;48.956;9.076;2023-07-28T07:52:07;1.77;;;1.67;;
12290;SDS011;6208;48.956;9.076;2023-07-28T07:54:53;1.33;;;1.33;;
12290;SDS011;6208;48.956;9.076;2023-07-28T07:57:37;2.45;;;1.40;;
12290;SDS011;6208;48.956;9.076;2023-07-28T08:00:21;1.25;;;1.25;;
12290;SDS011;6208;48.956;9.076;2023-07-28T08:03:05;1.40;;;1.40;;
12290;SDS011;6208;48.956;9.076;2023-07-28T08:05:50;1.88;;;1.77;;
12290;SDS011;6208;48.956;9.076;2023-07-28T08:08:37;1.67;;;1.58;;
12290;SDS011;6208;48.956;9.076;2023-07-28T08:11:21;1.95;;;1.88;;
12290;SDS011;6208;48.956;9.076;2023-07-28T08:14:06;1.65;;;1.55;;
12290;SDS011;6208;48.956;9.076;2023-07-28T08:16:50;3.58;;;1.58;;
12290;SDS011;6208;48.956;9.076;2023-07-28T08:19:34;2.05;;;1.95;;
12290;SDS011;6208;48.956;9.076;2023-07-28T08:22:18;1.70;;;1.60;;
12290;SDS011;6208;48.956;9.076;2023-07-28T08:25:02;1.98;;;1.88;;
12290;SDS011;6208;48.956;9.076;2023-07-28T08:27:47;1.58;;;1.58;;
12290;SDS011;6208;48.956;9.076;2023-07-28T08:30:32;2.00;;;1.83;;
12290;SDS011;6208;48.956;9.076;2023-07-28T08:33:16;1.60;;;1.50;;
12290;SDS011;6208;48.956;9.076;2023-07-28T08:36:00;2.08;;;1.98;;
12290;SDS011;6208;48.956;9.076;2023-07-28T08:38:45;2.55;;;1.45;;
12290;SDS011;6208;48.956;9.076;2023-07-28T08:41:29;1.50;;;1.40;;
12290;SDS011;6208;48.956;9.076;2023-07-28T08:44:13;1.95;;;1.73;;
12290;SDS011;6208;48.956;9.076;2023-07-28T08:47:02;1.98;;;1.35;;
12290;SDS011;6208;48.956;9.076;2023-07-28T08:49:48;1.63;;;1.50;;
12290;SDS011;6208;48.956;9.076;2023-07-28T08:52:32;4.82;;;1.70;;
12290;SDS011;6208;48.956;9.076;2023-07-28T08:55:16;1.63;;;1.58;;
12290;SDS011;6208;48.956;9.076;2023-07-28T08:58:13;2.70;;;1.60;;
12290;SDS011;6208;48.956;9.076;2023-07-28T09:01:02;3.03;;;1.60;;
12290;SDS011;6208;48.956;9.076;2023-07-28T09:03:48;1.67;;;1.58;;
12290;SDS011;6208;48.956;9.076;2023-07-28T09:06:32;1.80;;;1.70;;
12290;SDS011;6208;48.956;9.076;2023-07-28T09:09:18;1.60;;;1.50;;
12290;SDS011;6208;48.956;9.076;2023-07-28T09:12:06;1.55;;;1.45;;
12290;SDS011;6208;48.956;9.076;2023-07-28T09:14:58;2.00;;;1.90;;
12290;SDS011;6208;48.956;9.076;2023-07-28T09:17:43;1.83;;;1.73;;
12290;SDS011;6208;48.956;9.076;2023-07-28T09:20:35;1.80;;;1.70;;
12290;SDS011;6208;48.956;9.076;2023-07-28T09:23:27;1.92;;;1.83;;
12290;SDS011;6208;48.956;9.076;2023-07-28T09:26:15;1.60;;;1.50;;
12290;SDS011;6208;48.956;9.076;2023-07-28T09:29:00;2.22;;;2.03;;
12290;SDS011;6208;48.956;9.076;2023-07-28T09:31:44;1.60;;;1.58;;
12290;SDS011;6208;48.956;9.076;2023-07-28T09:34:29;2.60;;;1.80;;
12290;SDS011;6208;48.956;9.076;2023-07-28T09:37:17;3.13;;;1.58;;
12290;SDS011;6208;48.956;9.076;2023-07-28T09:40:02;1.95;;;1.85;;
12290;SDS011;6208;48.956;9.076;2023-07-28T09:42:49;1.85;;;1.75;;
12290;SDS011;6208;48.956;9.076;2023-07-28T09:45:34;1.65;;;1.55;;
12290;SDS011;6208;48.956;9.076;2023-07-28T09:48:19;1.52;;;1.42;;
12290;SDS011;6208;48.956;9.076;2023-07-28T09:51:06;1.40;;;1.30;;
12290;SDS011;6208;48.956;9.076;2023-07-28T09:54:04;1.50;;;1.40;;
12290;SDS011;6208;48.956;9.076;2023-07-28T09:56:50;1.38;;;1.38;;
12290;SDS011;6208;48.956;9.076;2023-07-28T09:59:38;1.55;;;1.45;;
12290;SDS011;6208;48.956;9.076;2023-07-28T10:02:23;2.13;;;1.10;;
12290;SDS011;6208;48.956;9.076;2023-07-28T10:05:08;1.63;;;1.52;;
12290;SDS011;6208;48.956;9.076;2023-07-28T10:07:54;1.70;;;1.40;;
12290;SDS011;6208;48.956;9.076;2023-07-28T10:10:39;1.48;;;1.15;;
12290;SDS011;6208;48.956;9.076;2023-07-28T10:13:25;1.40;;;1.40;;
12290;SDS011;6208;48.956;9.076;2023-07-28T10:16:10;2.00;;;1.80;;
12290;SDS011;6208;48.956;9.076;2023-07-28T10:18:58;1.25;;;1.25;;
12290;SDS011;6208;48.956;9.076;2023-07-28T10:21:43;1.40;;;1.30;;
12290;SDS011;6208;48.956;9.076;2023-07-28T10:27:38;1.40;;;1.30;;
12290;SDS011;6208;48.956;9.076;2023-07-28T10:30:27;1.33;;;1.23;;
12290;SDS011;6208;48.956;9.076;2023-07-28T10:33:25;6.18;;;1.50;;
12290;SDS011;6208;48.956;9.076;2023-07-28T10:44:52;1.13;;;1.13;;
12290;SDS011;6208;48.956;9.076;2023-07-28T10:47:36;1.10;;;1.10;;
12290;SDS011;6208;48.956;9.076;2023-07-28T10:50:20;1.40;;;1.40;;
12290;SDS011;6208;48.956;9.076;2023-07-28T10:53:04;1.40;;;1.30;;
12290;SDS011;6208;48.956;9.076;2023-07-28T10:55:49;1.90;;;1.38;;
12290;SDS011;6208;48.956;9.076;2023-07-28T10:58:33;1.25;;;1.25;;
12290;SDS011;6208;48.956;9.076;2023-07-28T11:01:20;1.20;;;1.20;;
12290;SDS011;6208;48.956;9.076;2023-07-28T11:04:11;1.58;;;1.40;;
12290;SDS011;6208;48.956;9.076;2023-07-28T11:06:59;1.30;;;1.20;;
12290;SDS011;6208;48.956;9.076;2023-07-28T11:09:43;1.23;;;1.23;;
12290;SDS011;6208;48.956;9.076;2023-07-28T11:12:27;1.48;;;1.42;;
12290;SDS011;6208;48.956;9.076;2023-07-28T11:15:12;1.63;;;1.52;;
12290;SDS011;6208;48.956;9.076;2023-07-28T11:17:57;1.20;;;1.20;;
12290;SDS011;6208;48.956;9.076;2023-07-28T11:20:41;1.58;;;1.48;;
12290;SDS011;6208;48.956;9.076;2023-07-28T11:23:26;1.55;;;1.45;;
12290;SDS011;6208;48.956;9.076;2023-07-28T11:26:12;1.33;;;1.30;;
12290;SDS011;6208;48.956;9.076;2023-07-28T11:28:57;2.00;;;1.90;;
12290;SDS011;6208;48.956;9.076;2023-07-28T11:31:43;5.82;;;2.20;;
12290;SDS011;6208;48.956;9.076;2023-07-28T11:34:27;1.65;;;1.55;;
12290;SDS011;6208;48.956;9.076;2023-07-28T11:37:11;1.85;;;1.60;;
12290;SDS011;6208;48.956;9.076;2023-07-28T11:39:55;1.63;;;1.52;;
12290;SDS011;6208;48.956;9.076;2023-07-28T11:42:53;1.75;;;1.65;;
12290;SDS011;6208;48.956;9.076;2023-07-28T11:45:38;1.98;;;1.80;;
12290;SDS011;6208;48.956;9.076;2023-07-28T11:48:22;1.77;;;1.67;;
12290;SDS011;6208;48.956;9.076;2023-07-28T11:51:07;2.65;;;1.55;;
12290;SDS011;6208;48.956;9.076;2023-07-28T11:53:57;1.75;;;1.65;;
12290;SDS011;6208;48.956;9.076;2023-07-28T11:56:41;1.95;;;1.85;;
12290;SDS011;6208;48.956;9.076;2023-07-28T11:59:26;1.95;;;1.85;;
12290;SDS011;6208;48.956;9.076;2023-07-28T12:02:11;1.85;;;1.75;;
12290;SDS011;6208;48.956;9.076;2023-07-28T12:04:55;2.10;;;1.90;;
12290;SDS011;6208;48.956;9.076;2023-07-28T12:07:46;1.80;;;1.70;;
12290;SDS011;6208;48.956;9.076;2023-07-28T12:10:31;3.42;;;2.15;;
12290;SDS011;6208;48.956;9.076;2023-07-28T12:13:15;1.70;;;1.60;;
12290;SDS011;6208;48.956;9.076;2023-07-28T12:15:59;2.13;;;2.00;;
12290;SDS011;6208;48.956;9.076;2023-07-28T12:18:45;2.38;;;2.15;;
12290;SDS011;6208;48.956;9.076;2023-07-28T12:21:30;2.50;;;2.30;;
12290;SDS011;6208;48.956;9.076;2023-07-28T12:24:15;2.35;;;2.15;;
12290;SDS011;6208;48.956;9.076;2023-07-28T12:26:59;2.08;;;1.98;;
12290;SDS011;6208;48.956;9.076;2023-07-28T12:29:43;2.45;;;2.30;;
12290;SDS011;6208;48.956;9.076;2023-07-28T12:32:30;3.20;;;2.20;;
12290;SDS011;6208;48.956;9.076;2023-07-28T12:35:14;2.63;;;2.40;;
12290;SDS011;6208;48.956;9.076;2023-07-28T12:38:02;2.47;;;2.28;;
12290;SDS011;6208;48.956;9.076;2023-07-28T12:40:48;8.10;;;2.55;;
12290;SDS011;6208;48.956;9.076;2023-07-28T12:43:33;2.63;;;2.42;;
12290;SDS011;6208;48.956;9.076;2023-07-28T12:46:17;3.38;;;2.75;;
12290;SDS011;6208;48.956;9.076;2023-07-28T12:49:01;3.40;;;2.63;;
12290;SDS011;6208;48.956;9.076;2023-07-28T12:51:45;2.60;;;2.40;;
12290;SDS011;6208;48.956;9.076;2023-07-28T12:54:30;3.05;;;2.70;;
12290;SDS011;6208;48.956;9.076;2023-07-28T12:57:14;2.60;;;2.50;;
12290;SDS011;6208;48.956;9.076;2023-07-28T12:59:58;3.60;;;2.80;;
12290;SDS011;6208;48.956;9.076;2023-07-28T13:02:43;2.95;;;2.75;;
12290;SDS011;6208;48.956;9.076;2023-07-28T13:05:27;3.60;;;3.30;;
12290;SDS011;6208;48.956;9.076;2023-07-28T13:08:11;2.72;;;2.53;;
12290;SDS011;6208;48.956;9.076;2023-07-28T13:10:56;3.72;;;3.53;;
12290;SDS011;6208;48.956;9.076;2023-07-28T13:13:40;3.53;;;3.30;;
12290;SDS011;6208;48.956;9.076;2023-07-28T13:16:25;2.92;;;2.72;;
12290;SDS011;6208;48.956;9.076;2023-07-28T13:19:09;2.90;;;2.80;;
12290;SDS011;6208;48.956;9.076;2023-07-28T13:21:54;3.25;;;3.05;;
12290;SDS011;6208;48.956;9.076;2023-07-28T13:24:38;3.80;;;3.42;;
12290;SDS011;6208;48.956;9.076;2023-07-28T13:27:22;2.88;;;2.72;;
12290;SDS011;6208;48.956;9.076;2023-07-28T13:30:06;4.22;;;3.75;;
12290;SDS011;6208;48.956;9.076;2023-07-28T13:32:51;4.57;;;4.18;;
12290;SDS011;6208;48.956;9.076;2023-07-28T13:35:36;3.40;;;3.20;;
12290;SDS011;6208;48.956;9.076;2023-07-28T13:38:20;3.75;;;3.22;;
12290;SDS011;6208;48.956;9.076;2023-07-28T13:41:04;3.85;;;3.55;;
12290;SDS011;6208;48.956;9.076;2023-07-28T13:43:49;5.05;;;3.05;;
12290;SDS011;6208;48.956;9.076;2023-07-28T13:46:34;3.10;;;2.90;;
12290;SDS011;6208;48.956;9.076;2023-07-28T13:49:18;3.25;;;2.88;;
12290;SDS011;6208;48.956;9.076;2023-07-28T13:52:02;3.97;;;3.63;;
12290;SDS011;6208;48.956;9.076;2023-07-28T13:54:47;3.65;;;3.35;;
12290;SDS011;6208;48.956;9.076;2023-07-28T13:57:32;4.65;;;3.50;;
12290;SDS011;6208;48.956;9.076;2023-07-28T14:00:16;3.28;;;3.08;;
12290;SDS011;6208;48.956;9.076;2023-07-28T14:03:00;3.60;;;3.40;;
12290;SDS011;6208;48.956;9.076;2023-07-28T14:05:44;3.92;;;3.47;;
12290;SDS011;6208;48.956;9.076;2023-07-28T14:08:30;5.00;;;3.60;;
12290;SDS011;6208;48.956;9.076;2023-07-28T14:11:14;4.53;;;3.30;;
12290;SDS011;6208;48.956;9.076;2023-07-28T14:13:58;3.70;;;3.40;;
12290;SDS011;6208;48.956;9.076;2023-07-28T14:16:42;3.80;;;3.60;;
12290;SDS011;6208;48.956;9.076;2023-07-28T14:19:26;3.75;;;3.45;;
12290;SDS011;6208;48.956;9.076;2023-07-28T14:22:10;5.03;;;3.67;;
12290;SDS011;6208;48.956;9.076;2023-07-28T14:24:54;5.05;;;4.65;;
12290;SDS011;6208;48.956;9.076;2023-07-28T14:27:38;4.07;;;3.67;;
12290;SDS011;6208;48.956;9.076;2023-07-28T14:30:22;4.43;;;3.60;;
12290;SDS011;6208;48.956;9.076;2023-07-28T14:33:09;3.90;;;3.53;;
12290;SDS011;6208;48.956;9.076;2023-07-28T14:35:53;3.63;;;3.38;;
12290;SDS011;6208;48.956;9.076;2023-07-28T14:38:38;4.20;;;3.88;;
12290;SDS011;6208;48.956;9.076;2023-07-28T14:41:22;3.97;;;3.67;;
12290;SDS011;6208;48.956;9.076;2023-07-28T14:44:08;4.78;;;3.95;;
12290;SDS011;6208;48.956;9.076;2023-07-28T14:46:52;5.60;;;4.75;;
12290;SDS011;6208;48.956;9.076;2023-07-28T14:49:36;3.55;;;3.35;;
12290;SDS011;6208;48.956;9.076;2023-07-28T14:52:20;4.20;;;3.80;;
12290;SDS011;6208;48.956;9.076;2023-07-28T14:55:04;3.75;;;3.55;;
12290;SDS011;6208;48.956;9.076;2023-07-28T14:57:48;4.65;;;3.53;;
12290;SDS011;6208;48.956;9.076;2023-07-28T15:00:33;8.65;;;4.60;;
12290;SDS011;6208;48.956;9.076;2023-07-28T15:03:17;3.80;;;3.50;;
12290;SDS011;6208;48.956;9.076;2023-07-28T15:06:03;4.30;;;3.65;;
12290;SDS011;6208;48.956;9.076;2023-07-28T15:08:48;3.97;;;3.67;;
12290;SDS011;6208;48.956;9.076;2023-07-28T15:11:32;3.53;;;3.13;;
12290;SDS011;6208;48.956;9.076;2023-07-28T15:14:16;6.03;;;3.72;;
12290;SDS011;6208;48.956;9.076;2023-07-28T15:17:01;4.63;;;4.00;;
12290;SDS011;6208;48.956;9.076;2023-07-28T15:19:45;3.97;;;3.67;;
12290;SDS011;6208;48.956;9.076;2023-07-28T15:22:29;4.47;;;4.07;;
12290;SDS011;6208;48.956;9.076;2023-07-28T15:25:15;4.65;;;4.10;;
12290;SDS011;6208;48.956;9.076;2023-07-28T15:27:59;4.00;;;3.58;;
12290;SDS011;6208;48.956;9.076;2023-07-28T15:30:43;3.85;;;3.63;;
12290;SDS011;6208;48.956;9.076;2023-07-28T15:33:35;4.25;;;3.95;;
12290;SDS011;6208;48.956;9.076;2023-07-28T15:36:19;4.78;;;4.07;;
12290;SDS011;6208;48.956;9.076;2023-07-28T15:39:03;4.32;;;4.03;;
12290;SDS011;6208;48.956;9.076;2023-07-28T15:41:47;5.35;;;3.83;;
12290;SDS011;6208;48.956;9.076;2023-07-28T15:44:31;6.88;;;3.63;;
12290;SDS011;6208;48.956;9.076;2023-07-28T15:47:16;5.47;;;3.72;;
12290;SDS011;6208;48.956;9.076;2023-07-28T15:50:02;2.78;;;2.60;;
12290;SDS011;6208;48.956;9.076;2023-07-28T15:52:50;3.10;;;2.90;;
12290;SDS011;6208;48.956;9.076;2023-07-28T15:55:35;3.13;;;2.80;;
12290;SDS011;6208;48.956;9.076;2023-07-28T15:58:19;2.92;;;2.72;;
12290;SDS011;6208;48.956;9.076;2023-07-28T16:01:03;3.10;;;2.90;;
12290;SDS011;6208;48.956;9.076;2023-07-28T16:03:51;3.15;;;2.95;;
12290;SDS011;6208;48.956;9.076;2023-07-28T16:06:35;3.40;;;3.10;;
12290;SDS011;6208;48.956;9.076;2023-07-28T16:09:19;8.32;;;6.13;;
12290;SDS011;6208;48.956;9.076;2023-07-28T16:12:04;5.90;;;5.20;;
12290;SDS011;6208;48.956;9.076;2023-07-28T16:14:51;7.63;;;5.47;;
12290;SDS011;6208;48.956;9.076;2023-07-28T16:17:36;4.30;;;3.60;;
12290;SDS011;6208;48.956;9.076;2023-07-28T16:20:20;3.42;;;3.10;;
12290;SDS011;6208;48.956;9.076;2023-07-28T16:23:05;3.17;;;2.88;;
12290;SDS011;6208;48.956;9.076;2023-07-28T16:25:49;2.67;;;2.58;;
12290;SDS011;6208;48.956;9.076;2023-07-28T16:28:33;3.50;;;3.20;;
12290;SDS011;6208;48.956;9.076;2023-07-28T16:31:17;3.30;;;3.10;;
12290;SDS011;6208;48.956;9.076;2023-07-28T16:34:02;3.50;;;3.30;;
12290;SDS011;6208;48.956;9.076;2023-07-28T16:36:47;3.15;;;3.00;;
12290;SDS011;6208;48.956;9.076;2023-07-28T16:39:31;3.50;;;3.10;;
12290;SDS011;6208;48.956;9.076;2023-07-28T16:42:15;3.22;;;3.03;;
12290;SDS011;6208;48.956;9.076;2023-07-28T16:45:03;3.20;;;3.00;;
12290;SDS011;6208;48.956;9.076;2023-07-28T16:47:47;3.30;;;3.00;;
12290;SDS011;6208;48.956;9.076;2023-07-28T16:50:31;3.13;;;2.92;;
12290;SDS011;6208;48.956;9.076;2023-07-28T16:53:16;3.08;;;2.83;;
12290;SDS011;6208;48.956;9.076;2023-07-28T16:56:00;3.22;;;2.95;;
12290;SDS011;6208;48.956;9.076;2023-07-28T16:58:44;3.55;;;3.35;;
12290;SDS011;6208;48.956;9.076;2023-07-28T17:01:28;3.15;;;3.00;;
12290;SDS011;6208;48.956;9.076;2023-07-28T17:04:12;3.00;;;2.90;;
12290;SDS011;6208;48.956;9.076;2023-07-28T17:06:56;3.72;;;3.45;;